KDZB

Horseshoe Bay Resort Airport

Horseshoe Bay, Texas, USA
METAR KDZB 222035Z AUTO 00000KT 10SM -RA SCT045 BKN055 BKN070 17/11 A3018 RMK AO2 T01720106
Observed Flight Rules
Oct-22 @ 20:35 UTC (22 minutes ago) Visual Flight Rules
Visibility Clouds Conditions
10 miles
  • Scattered at 4,500' AGL
  • Broken at 5,500' AGL
  • Broken at 7,000' AGL
  • Light Rain
Temperatures Readings
Current 17°C / 63°F
Dewpoint 11°C / 52°F
Humidity 68%
Altimeter 30.18" Hg
Pressure 1022 hPa
Elevation 334
METAR KDZB 222035Z AUTO 00000KT 10SM -RA SCT045 BKN055 BKN070 17/11 A3018 RMK AO2 T01720106
Observed Flight Rules
Oct-22 @ 20:35 UTC
(22 minutes ago)
VFR
Clouds
  • Scattered at 4,500' AGL
  • Broken at 5,500' AGL
  • Broken at 7,000' AGL
Conditions
  • Light Rain
Temperature Dewpoint
17°C / 63°F 11°C / 52°F
Humidity Altimeter Pressure
68% 30.18" Hg 1022 hPa